Terminal Aerodrome Forecast
Issued by NWS Burlington, VT

Home | Current Version | Previous Version | Text Only | Print | Product List | Glossary On
Versions: 1 2 3 4 5 6 7 8 9 10 11 12 13 14 15 16 17
000
FTUS41 KBTV 021100
TAFBTV
TAF
KBTV 021120Z 0212/0312 19012KT P6SM SCT040
     FM022200 19012KT 5SM -TSRA BKN035CB
     FM030100 26005KT P6SM BKN035=

USA.gov is the U.S. government's official web portal to all federal, state and local government web resources and services.